sensor_id;sensor_type;location;lat;lon;timestamp;P1;durP1;ratioP1;P2;durP2;ratioP2
48028;SDS011;33808;37.368;127.108;2023-02-20T08:15:39;0.40;;;0.40;;
48028;SDS011;33808;37.368;127.108;2023-02-20T08:18:12;0.30;;;0.30;;
48028;SDS011;33808;37.368;127.108;2023-02-20T08:21:41;0.20;;;0.20;;
48028;SDS011;33808;37.368;127.108;2023-02-20T08:25:10;0.85;;;0.40;;
48028;SDS011;33808;37.368;127.108;2023-02-20T08:27:43;0.52;;;0.40;;
48028;SDS011;33808;37.368;127.108;2023-02-20T08:30:16;0.30;;;0.30;;
48028;SDS011;33808;37.368;127.108;2023-02-20T08:32:56;0.40;;;0.30;;
48028;SDS011;33808;37.368;127.108;2023-02-20T08:35:25;0.43;;;0.30;;
48028;SDS011;33808;37.368;127.108;2023-02-20T08:38:54;0.50;;;0.50;;
48028;SDS011;33808;37.368;127.108;2023-02-20T08:41:24;0.30;;;0.25;;
48028;SDS011;33808;37.368;127.108;2023-02-20T08:43:54;0.73;;;0.32;;
48028;SDS011;33808;37.368;127.108;2023-02-20T08:46:24;0.40;;;0.40;;
48028;SDS011;33808;37.368;127.108;2023-02-20T08:49:17;2.50;;;0.50;;
48028;SDS011;33808;37.368;127.108;2023-02-20T08:51:51;0.40;;;0.40;;
48028;SDS011;33808;37.368;127.108;2023-02-20T08:55:17;0.40;;;0.40;;
48028;SDS011;33808;37.368;127.108;2023-02-20T08:58:46;2.08;;;0.40;;
48028;SDS011;33808;37.368;127.108;2023-02-20T09:01:16;0.45;;;0.40;;
48028;SDS011;33808;37.368;127.108;2023-02-20T09:04:45;0.50;;;0.40;;
48028;SDS011;33808;37.368;127.108;2023-02-20T09:08:14;0.60;;;0.57;;
48028;SDS011;33808;37.368;127.108;2023-02-20T09:10:44;0.28;;;0.28;;
48028;SDS011;33808;37.368;127.108;2023-02-20T09:13:13;1.15;;;0.50;;
48028;SDS011;33808;37.368;127.108;2023-02-20T09:15:44;0.40;;;0.32;;
48028;SDS011;33808;37.368;127.108;2023-02-20T09:18:14;0.30;;;0.30;;
48028;SDS011;33808;37.368;127.108;2023-02-20T09:20:44;0.32;;;0.32;;
48028;SDS011;33808;37.368;127.108;2023-02-20T09:23:15;1.77;;;0.45;;
48028;SDS011;33808;37.368;127.108;2023-02-20T09:26:24;3.88;;;0.40;;
48028;SDS011;33808;37.368;127.108;2023-02-20T09:28:54;0.40;;;0.40;;
48028;SDS011;33808;37.368;127.108;2023-02-20T09:31:24;3.22;;;0.90;;
48028;SDS011;33808;37.368;127.108;2023-02-20T09:33:53;0.57;;;0.57;;
48028;SDS011;33808;37.368;127.108;2023-02-20T09:36:23;0.57;;;0.55;;
48028;SDS011;33808;37.368;127.108;2023-02-20T09:39:52;1.52;;;0.60;;
48028;SDS011;33808;37.368;127.108;2023-02-20T09:43:24;0.60;;;0.60;;
48028;SDS011;33808;37.368;127.108;2023-02-20T09:46:52;0.80;;;0.80;;
48028;SDS011;33808;37.368;127.108;2023-02-20T09:50:25;0.77;;;0.60;;
48028;SDS011;33808;37.368;127.108;2023-02-20T09:54:00;0.70;;;0.70;;
48028;SDS011;33808;37.368;127.108;2023-02-20T09:57:32;1.20;;;0.80;;
48028;SDS011;33808;37.368;127.108;2023-02-20T10:01:00;0.70;;;0.70;;
48028;SDS011;33808;37.368;127.108;2023-02-20T10:04:39;1.95;;;0.63;;
48028;SDS011;33808;37.368;127.108;2023-02-20T10:07:58;0.98;;;0.63;;
48028;SDS011;33808;37.368;127.108;2023-02-20T10:11:03;0.70;;;0.55;;
48028;SDS011;33808;37.368;127.108;2023-02-20T10:21:06;0.77;;;0.57;;
48028;SDS011;33808;37.368;127.108;2023-02-20T10:27:53;0.85;;;0.77;;
48028;SDS011;33808;37.368;127.108;2023-02-20T10:31:38;2.05;;;1.08;;
48028;SDS011;33808;37.368;127.108;2023-02-20T10:35:11;1.00;;;0.80;;
48028;SDS011;33808;37.368;127.108;2023-02-20T10:38:43;1.30;;;0.80;;
48028;SDS011;33808;37.368;127.108;2023-02-20T10:42:00;0.90;;;0.80;;
48028;SDS011;33808;37.368;127.108;2023-02-20T10:49:06;1.65;;;1.33;;
48028;SDS011;33808;37.368;127.108;2023-02-20T10:52:19;1.55;;;1.00;;
48028;SDS011;33808;37.368;127.108;2023-02-20T10:55:55;1.60;;;0.90;;
48028;SDS011;33808;37.368;127.108;2023-02-20T10:59:37;1.23;;;0.88;;
48028;SDS011;33808;37.368;127.108;2023-02-20T11:03:05;1.55;;;1.10;;
48028;SDS011;33808;37.368;127.108;2023-02-20T11:06:36;0.82;;;0.70;;
48028;SDS011;33808;37.368;127.108;2023-02-20T11:10:07;0.68;;;0.65;;
48028;SDS011;33808;37.368;127.108;2023-02-20T14:31:02;5.03;;;0.50;;
48028;SDS011;33808;37.368;127.108;2023-02-20T14:34:14;0.80;;;0.40;;
48028;SDS011;33808;37.368;127.108;2023-02-20T14:43:03;0.88;;;0.50;;
48028;SDS011;33808;37.368;127.108;2023-02-20T14:45:43;2.58;;;0.40;;
48028;SDS011;33808;37.368;127.108;2023-02-20T14:48:20;0.50;;;0.50;;
48028;SDS011;33808;37.368;127.108;2023-02-20T14:51:02;0.85;;;0.43;;
48028;SDS011;33808;37.368;127.108;2023-02-20T14:53:37;1.80;;;0.50;;
48028;SDS011;33808;37.368;127.108;2023-02-20T14:56:10;0.80;;;0.38;;
48028;SDS011;33808;37.368;127.108;2023-02-20T14:58:44;0.28;;;0.28;;
48028;SDS011;33808;37.368;127.108;2023-02-20T15:04:09;0.57;;;0.52;;
48028;SDS011;33808;37.368;127.108;2023-02-20T15:06:39;3.92;;;0.50;;
48028;SDS011;33808;37.368;127.108;2023-02-20T15:09:11;0.40;;;0.40;;
48028;SDS011;33808;37.368;127.108;2023-02-20T15:11:52;2.58;;;0.52;;
48028;SDS011;33808;37.368;127.108;2023-02-20T15:14:25;1.85;;;0.32;;
48028;SDS011;33808;37.368;127.108;2023-02-20T15:17:08;0.40;;;0.35;;
48028;SDS011;33808;37.368;127.108;2023-02-20T15:19:50;2.80;;;0.40;;
48028;SDS011;33808;37.368;127.108;2023-02-20T15:23:29;0.32;;;0.32;;
48028;SDS011;33808;37.368;127.108;2023-02-20T15:30:34;0.50;;;0.50;;
48028;SDS011;33808;37.368;127.108;2023-02-20T15:34:21;0.47;;;0.40;;
48028;SDS011;33808;37.368;127.108;2023-02-20T15:37:48;0.50;;;0.50;;
48028;SDS011;33808;37.368;127.108;2023-02-20T15:41:18;0.40;;;0.40;;
48028;SDS011;33808;37.368;127.108;2023-02-20T15:44:47;0.95;;;0.50;;
48028;SDS011;33808;37.368;127.108;2023-02-20T15:48:16;0.30;;;0.30;;
48028;SDS011;33808;37.368;127.108;2023-02-20T15:51:46;2.92;;;0.40;;
48028;SDS011;33808;37.368;127.108;2023-02-20T15:55:16;0.75;;;0.45;;
48028;SDS011;33808;37.368;127.108;2023-02-20T15:58:44;0.20;;;0.20;;
48028;SDS011;33808;37.368;127.108;2023-02-20T16:02:17;0.73;;;0.45;;
48028;SDS011;33808;37.368;127.108;2023-02-20T16:05:44;0.30;;;0.30;;
48028;SDS011;33808;37.368;127.108;2023-02-20T16:09:13;0.45;;;0.45;;
48028;SDS011;33808;37.368;127.108;2023-02-20T16:12:42;0.43;;;0.28;;
48028;SDS011;33808;37.368;127.108;2023-02-20T16:16:13;0.35;;;0.30;;
48028;SDS011;33808;37.368;127.108;2023-02-20T16:19:40;0.50;;;0.30;;
48028;SDS011;33808;37.368;127.108;2023-02-20T16:23:08;0.38;;;0.35;;
48028;SDS011;33808;37.368;127.108;2023-02-20T16:26:38;0.95;;;0.50;;
